sensor_id;sensor_type;location;lat;lon;timestamp;P1;durP1;ratioP1;P2;durP2;ratioP2
59458;SDS011;45269;43.568;22.244;2022-10-23T00:00:47;21.73;;;16.15;;
59458;SDS011;45269;43.568;22.244;2022-10-23T00:03:12;24.85;;;16.02;;
59458;SDS011;45269;43.568;22.244;2022-10-23T00:05:38;18.50;;;12.55;;
59458;SDS011;45269;43.568;22.244;2022-10-23T00:08:04;20.35;;;11.13;;
59458;SDS011;45269;43.568;22.244;2022-10-23T00:10:30;17.08;;;11.70;;
59458;SDS011;45269;43.568;22.244;2022-10-23T00:12:55;14.30;;;9.95;;
59458;SDS011;45269;43.568;22.244;2022-10-23T00:15:21;17.83;;;9.43;;
59458;SDS011;45269;43.568;22.244;2022-10-23T00:17:46;14.35;;;9.85;;
59458;SDS011;45269;43.568;22.244;2022-10-23T00:20:12;15.93;;;9.57;;
59458;SDS011;45269;43.568;22.244;2022-10-23T00:22:38;13.82;;;9.35;;
59458;SDS011;45269;43.568;22.244;2022-10-23T00:25:04;16.08;;;9.18;;
59458;SDS011;45269;43.568;22.244;2022-10-23T00:27:30;13.70;;;9.70;;
59458;SDS011;45269;43.568;22.244;2022-10-23T00:29:55;17.38;;;9.63;;
59458;SDS011;45269;43.568;22.244;2022-10-23T00:32:21;14.63;;;8.63;;
59458;SDS011;45269;43.568;22.244;2022-10-23T00:34:46;15.40;;;8.95;;
59458;SDS011;45269;43.568;22.244;2022-10-23T00:37:12;13.93;;;8.43;;
59458;SDS011;45269;43.568;22.244;2022-10-23T00:39:37;13.77;;;7.28;;
59458;SDS011;45269;43.568;22.244;2022-10-23T00:42:02;13.77;;;7.88;;
59458;SDS011;45269;43.568;22.244;2022-10-23T00:46:53;14.13;;;9.82;;
59458;SDS011;45269;43.568;22.244;2022-10-23T00:49:18;16.63;;;10.90;;
59458;SDS011;45269;43.568;22.244;2022-10-23T00:51:54;16.05;;;10.30;;
59458;SDS011;45269;43.568;22.244;2022-10-23T00:54:22;19.15;;;13.77;;
59458;SDS011;45269;43.568;22.244;2022-10-23T00:56:49;19.73;;;12.68;;
59458;SDS011;45269;43.568;22.244;2022-10-23T00:59:15;16.70;;;12.32;;
59458;SDS011;45269;43.568;22.244;2022-10-23T01:01:40;16.05;;;10.45;;
59458;SDS011;45269;43.568;22.244;2022-10-23T01:04:08;16.20;;;10.38;;
59458;SDS011;45269;43.568;22.244;2022-10-23T01:12:07;22.45;;;12.18;;
59458;SDS011;45269;43.568;22.244;2022-10-23T01:22:18;21.35;;;14.77;;
59458;SDS011;45269;43.568;22.244;2022-10-23T01:24:48;20.40;;;14.55;;
59458;SDS011;45269;43.568;22.244;2022-10-23T01:27:22;20.50;;;14.32;;
59458;SDS011;45269;43.568;22.244;2022-10-23T01:32:18;20.73;;;12.88;;
59458;SDS011;45269;43.568;22.244;2022-10-23T01:37:11;16.67;;;12.63;;
59458;SDS011;45269;43.568;22.244;2022-10-23T01:39:39;14.57;;;11.18;;
59458;SDS011;45269;43.568;22.244;2022-10-23T01:42:07;14.90;;;11.20;;
59458;SDS011;45269;43.568;22.244;2022-10-23T01:47:09;13.40;;;10.48;;
59458;SDS011;45269;43.568;22.244;2022-10-23T01:49:35;15.13;;;10.57;;
59458;SDS011;45269;43.568;22.244;2022-10-23T01:52:02;13.13;;;10.25;;
59458;SDS011;45269;43.568;22.244;2022-10-23T01:54:30;17.40;;;11.55;;
59458;SDS011;45269;43.568;22.244;2022-10-23T01:56:56;15.10;;;10.40;;
59458;SDS011;45269;43.568;22.244;2022-10-23T01:59:24;16.73;;;11.50;;
59458;SDS011;45269;43.568;22.244;2022-10-23T02:01:51;15.50;;;12.35;;
59458;SDS011;45269;43.568;22.244;2022-10-23T02:04:20;15.77;;;11.60;;
59458;SDS011;45269;43.568;22.244;2022-10-23T02:06:46;15.57;;;12.20;;
59458;SDS011;45269;43.568;22.244;2022-10-23T02:09:11;14.05;;;11.77;;
59458;SDS011;45269;43.568;22.244;2022-10-23T02:11:39;16.38;;;12.32;;
59458;SDS011;45269;43.568;22.244;2022-10-23T02:16:37;16.17;;;12.88;;
59458;SDS011;45269;43.568;22.244;2022-10-23T02:21:55;15.55;;;12.52;;
59458;SDS011;45269;43.568;22.244;2022-10-23T02:24:29;14.70;;;12.48;;
59458;SDS011;45269;43.568;22.244;2022-10-23T02:26:56;17.15;;;12.63;;
59458;SDS011;45269;43.568;22.244;2022-10-23T02:29:33;14.77;;;11.93;;
59458;SDS011;45269;43.568;22.244;2022-10-23T02:31:59;14.90;;;12.48;;
59458;SDS011;45269;43.568;22.244;2022-10-23T02:34:25;13.65;;;12.20;;
59458;SDS011;45269;43.568;22.244;2022-10-23T02:36:50;16.33;;;12.27;;
59458;SDS011;45269;43.568;22.244;2022-10-23T02:39:16;16.00;;;12.05;;
59458;SDS011;45269;43.568;22.244;2022-10-23T02:41:54;17.00;;;13.27;;
59458;SDS011;45269;43.568;22.244;2022-10-23T02:44:26;16.63;;;13.18;;
59458;SDS011;45269;43.568;22.244;2022-10-23T02:49:34;22.90;;;14.60;;
59458;SDS011;45269;43.568;22.244;2022-10-23T02:52:13;18.63;;;13.50;;
59458;SDS011;45269;43.568;22.244;2022-10-23T02:54:53;18.13;;;13.48;;
59458;SDS011;45269;43.568;22.244;2022-10-23T02:57:30;16.63;;;13.82;;
59458;SDS011;45269;43.568;22.244;2022-10-23T03:02:25;17.20;;;13.13;;
59458;SDS011;45269;43.568;22.244;2022-10-23T03:04:53;19.23;;;14.77;;
59458;SDS011;45269;43.568;22.244;2022-10-23T03:07:20;24.02;;;18.75;;
59458;SDS011;45269;43.568;22.244;2022-10-23T03:09:46;26.33;;;19.30;;
59458;SDS011;45269;43.568;22.244;2022-10-23T03:12:11;21.17;;;16.48;;
59458;SDS011;45269;43.568;22.244;2022-10-23T03:14:37;18.90;;;14.50;;
59458;SDS011;45269;43.568;22.244;2022-10-23T03:17:03;21.13;;;15.95;;
59458;SDS011;45269;43.568;22.244;2022-10-23T03:19:28;19.20;;;16.73;;
59458;SDS011;45269;43.568;22.244;2022-10-23T03:21:53;26.88;;;21.20;;
59458;SDS011;45269;43.568;22.244;2022-10-23T03:24:19;35.40;;;25.65;;
59458;SDS011;45269;43.568;22.244;2022-10-23T03:26:44;29.95;;;21.98;;
59458;SDS011;45269;43.568;22.244;2022-10-23T03:29:09;29.40;;;25.05;;
59458;SDS011;45269;43.568;22.244;2022-10-23T03:31:35;26.80;;;21.30;;
59458;SDS011;45269;43.568;22.244;2022-10-23T03:34:00;19.50;;;17.27;;
59458;SDS011;45269;43.568;22.244;2022-10-23T03:36:25;20.73;;;16.05;;
59458;SDS011;45269;43.568;22.244;2022-10-23T03:38:51;17.42;;;14.80;;
59458;SDS011;45269;43.568;22.244;2022-10-23T03:41:16;18.27;;;15.32;;
59458;SDS011;45269;43.568;22.244;2022-10-23T03:43:42;16.00;;;13.55;;
59458;SDS011;45269;43.568;22.244;2022-10-23T03:46:07;16.33;;;13.43;;
59458;SDS011;45269;43.568;22.244;2022-10-23T03:48:36;16.52;;;13.63;;
59458;SDS011;45269;43.568;22.244;2022-10-23T03:51:03;16.05;;;13.75;;
59458;SDS011;45269;43.568;22.244;2022-10-23T03:53:28;17.08;;;13.90;;
59458;SDS011;45269;43.568;22.244;2022-10-23T03:55:53;26.60;;;21.90;;
59458;SDS011;45269;43.568;22.244;2022-10-23T03:58:19;29.52;;;25.38;;
59458;SDS011;45269;43.568;22.244;2022-10-23T04:00:44;27.30;;;22.17;;
59458;SDS011;45269;43.568;22.244;2022-10-23T04:03:09;24.20;;;20.02;;
59458;SDS011;45269;43.568;22.244;2022-10-23T04:05:35;23.20;;;16.42;;
59458;SDS011;45269;43.568;22.244;2022-10-23T04:08:00;18.67;;;16.77;;
59458;SDS011;45269;43.568;22.244;2022-10-23T04:10:26;15.93;;;14.40;;
59458;SDS011;45269;43.568;22.244;2022-10-23T04:12:51;16.98;;;15.05;;
59458;SDS011;45269;43.568;22.244;2022-10-23T04:15:16;22.00;;;17.80;;
59458;SDS011;45269;43.568;22.244;2022-10-23T04:17:42;21.35;;;17.63;;
59458;SDS011;45269;43.568;22.244;2022-10-23T04:20:07;15.35;;;13.35;;
59458;SDS011;45269;43.568;22.244;2022-10-23T04:22:33;21.55;;;18.13;;
59458;SDS011;45269;43.568;22.244;2022-10-23T04:24:58;14.85;;;13.32;;
59458;SDS011;45269;43.568;22.244;2022-10-23T04:27:24;16.00;;;14.40;;
59458;SDS011;45269;43.568;22.244;2022-10-23T04:29:49;25.20;;;19.85;;
59458;SDS011;45269;43.568;22.244;2022-10-23T04:32:14;25.40;;;19.90;;
59458;SDS011;45269;43.568;22.244;2022-10-23T04:34:40;21.52;;;18.52;;
59458;SDS011;45269;43.568;22.244;2022-10-23T04:37:05;21.80;;;18.70;;
59458;SDS011;45269;43.568;22.244;2022-10-23T04:39:30;21.42;;;18.00;;
59458;SDS011;45269;43.568;22.244;2022-10-23T04:41:56;24.80;;;19.77;;
59458;SDS011;45269;43.568;22.244;2022-10-23T04:44:21;19.65;;;16.70;;
59458;SDS011;45269;43.568;22.244;2022-10-23T04:46:46;15.88;;;14.27;;
59458;SDS011;45269;43.568;22.244;2022-10-23T04:49:12;22.00;;;17.80;;
59458;SDS011;45269;43.568;22.244;2022-10-23T04:51:37;21.95;;;17.35;;
59458;SDS011;45269;43.568;22.244;2022-10-23T04:54:02;16.83;;;15.07;;
59458;SDS011;45269;43.568;22.244;2022-10-23T04:56:28;17.88;;;15.73;;
59458;SDS011;45269;43.568;22.244;2022-10-23T04:58:53;19.05;;;16.08;;
59458;SDS011;45269;43.568;22.244;2022-10-23T05:01:18;16.80;;;15.00;;
59458;SDS011;45269;43.568;22.244;2022-10-23T05:03:44;19.55;;;16.27;;
59458;SDS011;45269;43.568;22.244;2022-10-23T05:06:09;19.73;;;15.40;;
59458;SDS011;45269;43.568;22.244;2022-10-23T05:08:35;17.92;;;14.75;;
59458;SDS011;45269;43.568;22.244;2022-10-23T05:11:00;16.75;;;14.18;;
59458;SDS011;45269;43.568;22.244;2022-10-23T05:13:26;13.68;;;12.38;;
59458;SDS011;45269;43.568;22.244;2022-10-23T05:15:51;14.85;;;13.32;;
59458;SDS011;45269;43.568;22.244;2022-10-23T05:18:22;13.43;;;12.13;;
59458;SDS011;45269;43.568;22.244;2022-10-23T05:20:49;15.82;;;12.40;;
59458;SDS011;45269;43.568;22.244;2022-10-23T05:23:16;15.30;;;12.50;;
59458;SDS011;45269;43.568;22.244;2022-10-23T05:25:42;12.40;;;10.80;;
59458;SDS011;45269;43.568;22.244;2022-10-23T05:28:07;21.95;;;18.58;;
59458;SDS011;45269;43.568;22.244;2022-10-23T05:30:33;14.15;;;12.77;;
59458;SDS011;45269;43.568;22.244;2022-10-23T05:32:59;16.63;;;14.43;;
59458;SDS011;45269;43.568;22.244;2022-10-23T05:35:25;15.15;;;13.50;;
59458;SDS011;45269;43.568;22.244;2022-10-23T05:37:51;14.05;;;12.48;;
59458;SDS011;45269;43.568;22.244;2022-10-23T05:40:17;17.55;;;13.25;;
59458;SDS011;45269;43.568;22.244;2022-10-23T05:42:43;18.60;;;16.73;;
59458;SDS011;45269;43.568;22.244;2022-10-23T05:45:08;15.23;;;13.63;;
59458;SDS011;45269;43.568;22.244;2022-10-23T05:47:33;15.95;;;13.38;;
59458;SDS011;45269;43.568;22.244;2022-10-23T05:49:59;14.40;;;12.88;;
59458;SDS011;45269;43.568;22.244;2022-10-23T05:52:24;12.88;;;11.68;;
59458;SDS011;45269;43.568;22.244;2022-10-23T05:54:50;26.92;;;24.17;;
59458;SDS011;45269;43.568;22.244;2022-10-23T05:57:15;48.00;;;33.63;;
59458;SDS011;45269;43.568;22.244;2022-10-23T05:59:41;37.38;;;28.50;;
59458;SDS011;45269;43.568;22.244;2022-10-23T06:02:06;34.72;;;26.70;;
59458;SDS011;45269;43.568;22.244;2022-10-23T06:04:32;37.03;;;28.25;;
59458;SDS011;45269;43.568;22.244;2022-10-23T06:06:58;35.38;;;29.48;;
59458;SDS011;45269;43.568;22.244;2022-10-23T06:09:23;27.25;;;23.20;;
59458;SDS011;45269;43.568;22.244;2022-10-23T06:11:49;27.58;;;19.42;;
59458;SDS011;45269;43.568;22.244;2022-10-23T06:14:14;22.20;;;18.15;;
59458;SDS011;45269;43.568;22.244;2022-10-23T06:16:39;21.90;;;18.60;;
59458;SDS011;45269;43.568;22.244;2022-10-23T06:19:05;19.77;;;15.13;;
59458;SDS011;45269;43.568;22.244;2022-10-23T06:21:35;14.55;;;13.05;;
59458;SDS011;45269;43.568;22.244;2022-10-23T06:24:00;17.63;;;14.55;;
59458;SDS011;45269;43.568;22.244;2022-10-23T06:26:26;20.88;;;15.60;;
59458;SDS011;45269;43.568;22.244;2022-10-23T06:28:51;18.00;;;14.00;;
59458;SDS011;45269;43.568;22.244;2022-10-23T06:31:16;16.00;;;12.38;;
59458;SDS011;45269;43.568;22.244;2022-10-23T06:33:43;15.95;;;11.70;;
59458;SDS011;45269;43.568;22.244;2022-10-23T06:36:09;17.80;;;15.30;;
59458;SDS011;45269;43.568;22.244;2022-10-23T06:38:37;30.60;;;26.02;;
59458;SDS011;45269;43.568;22.244;2022-10-23T06:41:05;35.10;;;29.15;;
59458;SDS011;45269;43.568;22.244;2022-10-23T06:43:31;39.67;;;33.42;;
59458;SDS011;45269;43.568;22.244;2022-10-23T06:45:59;64.65;;;56.53;;
59458;SDS011;45269;43.568;22.244;2022-10-23T06:48:24;70.90;;;52.45;;
59458;SDS011;45269;43.568;22.244;2022-10-23T06:50:49;48.53;;;38.03;;
59458;SDS011;45269;43.568;22.244;2022-10-23T06:53:15;54.00;;;36.55;;
59458;SDS011;45269;43.568;22.244;2022-10-23T06:55:40;40.08;;;32.25;;
59458;SDS011;45269;43.568;22.244;2022-10-23T06:58:06;22.05;;;19.38;;
59458;SDS011;45269;43.568;22.244;2022-10-23T07:00:35;16.20;;;12.43;;
59458;SDS011;45269;43.568;22.244;2022-10-23T07:03:01;18.55;;;13.13;;
59458;SDS011;45269;43.568;22.244;2022-10-23T07:05:26;15.98;;;11.27;;
59458;SDS011;45269;43.568;22.244;2022-10-23T07:07:52;9.98;;;8.98;;
59458;SDS011;45269;43.568;22.244;2022-10-23T07:10:17;9.63;;;8.23;;
59458;SDS011;45269;43.568;22.244;2022-10-23T07:12:42;9.85;;;8.45;;
59458;SDS011;45269;43.568;22.244;2022-10-23T07:15:09;8.30;;;7.43;;
59458;SDS011;45269;43.568;22.244;2022-10-23T07:17:34;7.15;;;6.38;;
59458;SDS011;45269;43.568;22.244;2022-10-23T07:19:59;7.65;;;6.05;;
59458;SDS011;45269;43.568;22.244;2022-10-23T07:22:25;9.38;;;7.10;;
59458;SDS011;45269;43.568;22.244;2022-10-23T07:24:50;7.93;;;7.15;;
59458;SDS011;45269;43.568;22.244;2022-10-23T07:27:16;5.10;;;4.60;;
59458;SDS011;45269;43.568;22.244;2022-10-23T07:29:41;5.35;;;4.30;;
59458;SDS011;45269;43.568;22.244;2022-10-23T07:32:06;4.53;;;4.13;;
59458;SDS011;45269;43.568;22.244;2022-10-23T07:34:33;5.32;;;4.82;;
59458;SDS011;45269;43.568;22.244;2022-10-23T07:37:00;4.80;;;4.03;;
59458;SDS011;45269;43.568;22.244;2022-10-23T07:39:26;5.63;;;5.07;;
59458;SDS011;45269;43.568;22.244;2022-10-23T07:41:51;9.48;;;8.23;;
59458;SDS011;45269;43.568;22.244;2022-10-23T07:44:16;5.47;;;4.85;;
59458;SDS011;45269;43.568;22.244;2022-10-23T07:46:42;4.57;;;4.18;;
59458;SDS011;45269;43.568;22.244;2022-10-23T07:49:08;5.15;;;4.07;;
59458;SDS011;45269;43.568;22.244;2022-10-23T07:51:34;5.47;;;4.13;;
59458;SDS011;45269;43.568;22.244;2022-10-23T07:53:59;3.95;;;3.55;;
59458;SDS011;45269;43.568;22.244;2022-10-23T07:56:25;6.57;;;4.40;;
59458;SDS011;45269;43.568;22.244;2022-10-23T07:58:53;10.90;;;9.65;;
59458;SDS011;45269;43.568;22.244;2022-10-23T08:01:22;5.80;;;5.30;;
59458;SDS011;45269;43.568;22.244;2022-10-23T08:03:50;5.07;;;4.57;;
59458;SDS011;45269;43.568;22.244;2022-10-23T08:06:15;5.22;;;4.45;;
59458;SDS011;45269;43.568;22.244;2022-10-23T08:08:40;4.97;;;4.57;;
59458;SDS011;45269;43.568;22.244;2022-10-23T08:11:06;4.45;;;4.05;;
59458;SDS011;45269;43.568;22.244;2022-10-23T08:13:31;11.82;;;4.07;;
59458;SDS011;45269;43.568;22.244;2022-10-23T08:15:57;7.10;;;5.53;;
59458;SDS011;45269;43.568;22.244;2022-10-23T08:18:22;6.13;;;4.90;;
59458;SDS011;45269;43.568;22.244;2022-10-23T08:20:48;3.88;;;3.50;;
59458;SDS011;45269;43.568;22.244;2022-10-23T08:23:15;5.65;;;4.70;;
59458;SDS011;45269;43.568;22.244;2022-10-23T08:25:42;3.38;;;3.08;;
59458;SDS011;45269;43.568;22.244;2022-10-23T08:28:08;4.22;;;3.83;;
59458;SDS011;45269;43.568;22.244;2022-10-23T08:30:33;5.07;;;4.57;;
59458;SDS011;45269;43.568;22.244;2022-10-23T08:33:01;3.15;;;2.80;;
59458;SDS011;45269;43.568;22.244;2022-10-23T08:35:26;4.68;;;3.40;;
59458;SDS011;45269;43.568;22.244;2022-10-23T08:37:51;4.68;;;2.95;;
59458;SDS011;45269;43.568;22.244;2022-10-23T08:40:18;5.15;;;2.95;;
59458;SDS011;45269;43.568;22.244;2022-10-23T08:42:47;6.63;;;3.07;;
59458;SDS011;45269;43.568;22.244;2022-10-23T08:48:27;2.72;;;2.53;;
59458;SDS011;45269;43.568;22.244;2022-10-23T08:50:55;3.40;;;3.10;;
59458;SDS011;45269;43.568;22.244;2022-10-23T08:53:28;4.10;;;3.70;;
59458;SDS011;45269;43.568;22.244;2022-10-23T08:56:16;4.13;;;3.70;;
59458;SDS011;45269;43.568;22.244;2022-10-23T08:58:40;4.93;;;3.30;;
59458;SDS011;45269;43.568;22.244;2022-10-23T09:01:53;5.32;;;3.35;;
59458;SDS011;45269;43.568;22.244;2022-10-23T09:03:58;3.13;;;2.83;;
59458;SDS011;45269;43.568;22.244;2022-10-23T09:09:03;3.47;;;3.17;;
59458;SDS011;45269;43.568;22.244;2022-10-23T09:19:34;3.30;;;2.97;;
59458;SDS011;45269;43.568;22.244;2022-10-23T09:21:59;3.42;;;2.95;;
59458;SDS011;45269;43.568;22.244;2022-10-23T09:24:26;3.60;;;3.30;;
59458;SDS011;45269;43.568;22.244;2022-10-23T09:26:55;3.50;;;3.00;;
59458;SDS011;45269;43.568;22.244;2022-10-23T09:29:28;3.35;;;2.90;;
59458;SDS011;45269;43.568;22.244;2022-10-23T09:31:57;3.03;;;2.75;;
59458;SDS011;45269;43.568;22.244;2022-10-23T09:34:26;3.53;;;3.20;;
59458;SDS011;45269;43.568;22.244;2022-10-23T09:36:53;7.40;;;5.88;;
59458;SDS011;45269;43.568;22.244;2022-10-23T09:39:29;2.42;;;2.22;;
59458;SDS011;45269;43.568;22.244;2022-10-23T09:41:55;5.07;;;2.97;;
59458;SDS011;45269;43.568;22.244;2022-10-23T09:44:28;6.68;;;4.80;;
59458;SDS011;45269;43.568;22.244;2022-10-23T09:46:57;3.55;;;3.20;;
59458;SDS011;45269;43.568;22.244;2022-10-23T09:49:23;2.88;;;2.67;;
59458;SDS011;45269;43.568;22.244;2022-10-23T09:52:35;6.78;;;3.67;;
59458;SDS011;45269;43.568;22.244;2022-10-23T09:54:38;7.50;;;2.33;;
59458;SDS011;45269;43.568;22.244;2022-10-23T09:57:19;2.20;;;2.03;;
59458;SDS011;45269;43.568;22.244;2022-10-23T09:59:49;2.53;;;2.10;;
59458;SDS011;45269;43.568;22.244;2022-10-23T10:02:19;2.78;;;2.30;;
59458;SDS011;45269;43.568;22.244;2022-10-23T10:04:46;1.98;;;1.88;;
59458;SDS011;45269;43.568;22.244;2022-10-23T10:07:22;7.10;;;2.38;;
59458;SDS011;45269;43.568;22.244;2022-10-23T10:09:47;4.45;;;2.90;;
59458;SDS011;45269;43.568;22.244;2022-10-23T10:15:03;12.50;;;7.10;;
59458;SDS011;45269;43.568;22.244;2022-10-23T10:17:42;2.33;;;2.10;;
59458;SDS011;45269;43.568;22.244;2022-10-23T10:25:36;2.47;;;2.28;;
59458;SDS011;45269;43.568;22.244;2022-10-23T10:28:18;8.57;;;7.80;;
59458;SDS011;45269;43.568;22.244;2022-10-23T10:33:15;3.58;;;2.70;;
59458;SDS011;45269;43.568;22.244;2022-10-23T10:35:46;6.03;;;2.70;;
59458;SDS011;45269;43.568;22.244;2022-10-23T10:43:57;2.20;;;2.00;;
59458;SDS011;45269;43.568;22.244;2022-10-23T10:49:15;2.17;;;2.00;;
59458;SDS011;45269;43.568;22.244;2022-10-23T10:54:29;2.50;;;2.30;;
59458;SDS011;45269;43.568;22.244;2022-10-23T10:56:57;1.98;;;1.80;;
59458;SDS011;45269;43.568;22.244;2022-10-23T10:59:27;3.38;;;2.10;;
59458;SDS011;45269;43.568;22.244;2022-10-23T11:02:00;3.42;;;2.15;;
59458;SDS011;45269;43.568;22.244;2022-10-23T11:06:56;2.17;;;1.63;;
59458;SDS011;45269;43.568;22.244;2022-10-23T11:09:26;1.77;;;1.67;;
59458;SDS011;45269;43.568;22.244;2022-10-23T11:11:52;4.78;;;1.90;;
59458;SDS011;45269;43.568;22.244;2022-10-23T11:14:19;2.25;;;1.85;;
59458;SDS011;45269;43.568;22.244;2022-10-23T11:16:46;1.90;;;1.40;;
59458;SDS011;45269;43.568;22.244;2022-10-23T11:19:23;2.20;;;1.73;;
59458;SDS011;45269;43.568;22.244;2022-10-23T11:24:19;2.13;;;1.65;;
59458;SDS011;45269;43.568;22.244;2022-10-23T11:36:52;1.70;;;1.60;;
59458;SDS011;45269;43.568;22.244;2022-10-23T11:39:19;2.50;;;1.90;;
59458;SDS011;45269;43.568;22.244;2022-10-23T11:41:46;1.80;;;1.70;;
59458;SDS011;45269;43.568;22.244;2022-10-23T11:46:58;1.50;;;1.40;;
59458;SDS011;45269;43.568;22.244;2022-10-23T11:49:24;2.00;;;1.80;;
59458;SDS011;45269;43.568;22.244;2022-10-23T11:51:59;3.35;;;2.00;;
59458;SDS011;45269;43.568;22.244;2022-10-23T11:54:25;2.20;;;1.70;;
59458;SDS011;45269;43.568;22.244;2022-10-23T11:57:08;2.35;;;1.35;;
59458;SDS011;45269;43.568;22.244;2022-10-23T12:02:55;1.52;;;1.30;;
59458;SDS011;45269;43.568;22.244;2022-10-23T12:04:56;2.17;;;1.52;;
59458;SDS011;45269;43.568;22.244;2022-10-23T12:07:26;1.60;;;1.50;;
59458;SDS011;45269;43.568;22.244;2022-10-23T12:10:35;4.10;;;1.33;;
59458;SDS011;45269;43.568;22.244;2022-10-23T12:12:41;1.58;;;0.80;;
59458;SDS011;45269;43.568;22.244;2022-10-23T12:17:34;2.35;;;1.30;;
59458;SDS011;45269;43.568;22.244;2022-10-23T12:25:26;1.63;;;1.50;;
59458;SDS011;45269;43.568;22.244;2022-10-23T12:28:07;1.20;;;1.10;;
59458;SDS011;45269;43.568;22.244;2022-10-23T12:38:19;1.92;;;1.10;;
59458;SDS011;45269;43.568;22.244;2022-10-23T12:40:52;1.30;;;0.95;;
59458;SDS011;45269;43.568;22.244;2022-10-23T12:43:26;1.13;;;0.93;;
59458;SDS011;45269;43.568;22.244;2022-10-23T12:45:51;0.98;;;0.88;;
59458;SDS011;45269;43.568;22.244;2022-10-23T12:48:19;1.70;;;1.33;;
59458;SDS011;45269;43.568;22.244;2022-10-23T12:50:49;1.10;;;0.90;;
59458;SDS011;45269;43.568;22.244;2022-10-23T12:53:15;3.55;;;2.95;;
59458;SDS011;45269;43.568;22.244;2022-10-23T12:55:52;2.90;;;2.70;;
59458;SDS011;45269;43.568;22.244;2022-10-23T13:01:45;12.13;;;8.60;;
59458;SDS011;45269;43.568;22.244;2022-10-23T13:03:40;5.68;;;4.30;;
59458;SDS011;45269;43.568;22.244;2022-10-23T13:06:05;12.07;;;8.55;;
59458;SDS011;45269;43.568;22.244;2022-10-23T13:08:32;19.80;;;13.75;;
59458;SDS011;45269;43.568;22.244;2022-10-23T13:10:58;19.65;;;14.30;;
59458;SDS011;45269;43.568;22.244;2022-10-23T13:13:23;10.93;;;8.27;;
59458;SDS011;45269;43.568;22.244;2022-10-23T13:15:49;25.77;;;19.02;;
59458;SDS011;45269;43.568;22.244;2022-10-23T13:18:15;12.55;;;9.93;;
59458;SDS011;45269;43.568;22.244;2022-10-23T13:21:02;14.07;;;11.93;;
59458;SDS011;45269;43.568;22.244;2022-10-23T13:23:30;9.65;;;7.78;;
59458;SDS011;45269;43.568;22.244;2022-10-23T13:26:00;9.30;;;7.28;;
59458;SDS011;45269;43.568;22.244;2022-10-23T13:28:26;10.35;;;6.60;;
59458;SDS011;45269;43.568;22.244;2022-10-23T13:31:26;18.35;;;15.10;;
59458;SDS011;45269;43.568;22.244;2022-10-23T13:33:44;26.77;;;17.73;;
59458;SDS011;45269;43.568;22.244;2022-10-23T13:38:42;46.92;;;30.08;;
59458;SDS011;45269;43.568;22.244;2022-10-23T13:41:17;24.55;;;14.57;;
59458;SDS011;45269;43.568;22.244;2022-10-23T13:43:44;15.07;;;12.52;;
59458;SDS011;45269;43.568;22.244;2022-10-23T13:46:16;15.98;;;14.27;;
59458;SDS011;45269;43.568;22.244;2022-10-23T13:48:42;8.07;;;6.10;;
59458;SDS011;45269;43.568;22.244;2022-10-23T13:51:11;12.20;;;11.00;;
59458;SDS011;45269;43.568;22.244;2022-10-23T13:53:37;11.82;;;10.70;;
59458;SDS011;45269;43.568;22.244;2022-10-23T13:56:03;7.82;;;7.03;;
59458;SDS011;45269;43.568;22.244;2022-10-23T13:58:28;12.07;;;10.73;;
59458;SDS011;45269;43.568;22.244;2022-10-23T14:00:53;14.98;;;13.38;;
59458;SDS011;45269;43.568;22.244;2022-10-23T14:03:19;12.75;;;11.55;;
59458;SDS011;45269;43.568;22.244;2022-10-23T14:08:13;8.97;;;8.07;;
59458;SDS011;45269;43.568;22.244;2022-10-23T14:10:38;10.43;;;8.60;;
59458;SDS011;45269;43.568;22.244;2022-10-23T14:13:04;8.40;;;6.70;;
59458;SDS011;45269;43.568;22.244;2022-10-23T14:15:29;9.85;;;8.90;;
59458;SDS011;45269;43.568;22.244;2022-10-23T14:17:55;7.25;;;6.57;;
59458;SDS011;45269;43.568;22.244;2022-10-23T14:20:20;8.07;;;6.90;;
59458;SDS011;45269;43.568;22.244;2022-10-23T14:22:46;6.80;;;6.20;;
59458;SDS011;45269;43.568;22.244;2022-10-23T14:25:11;6.25;;;5.65;;
59458;SDS011;45269;43.568;22.244;2022-10-23T14:27:36;4.28;;;3.97;;
59458;SDS011;45269;43.568;22.244;2022-10-23T14:30:02;3.78;;;2.90;;
59458;SDS011;45269;43.568;22.244;2022-10-23T14:32:28;3.80;;;3.00;;
59458;SDS011;45269;43.568;22.244;2022-10-23T14:34:54;4.05;;;3.50;;
59458;SDS011;45269;43.568;22.244;2022-10-23T14:37:20;3.97;;;2.58;;
59458;SDS011;45269;43.568;22.244;2022-10-23T14:39:45;10.48;;;9.40;;
59458;SDS011;45269;43.568;22.244;2022-10-23T14:42:11;4.88;;;4.25;;
59458;SDS011;45269;43.568;22.244;2022-10-23T14:44:37;4.07;;;3.78;;
59458;SDS011;45269;43.568;22.244;2022-10-23T14:47:02;4.32;;;3.90;;
59458;SDS011;45269;43.568;22.244;2022-10-23T14:49:27;4.13;;;3.25;;
59458;SDS011;45269;43.568;22.244;2022-10-23T14:51:53;4.30;;;2.65;;
59458;SDS011;45269;43.568;22.244;2022-10-23T14:54:18;4.70;;;3.00;;
59458;SDS011;45269;43.568;22.244;2022-10-23T14:56:43;2.50;;;2.30;;
59458;SDS011;45269;43.568;22.244;2022-10-23T14:59:09;4.20;;;3.05;;
59458;SDS011;45269;43.568;22.244;2022-10-23T15:01:39;5.50;;;3.38;;
59458;SDS011;45269;43.568;22.244;2022-10-23T15:04:05;4.55;;;3.40;;
59458;SDS011;45269;43.568;22.244;2022-10-23T15:06:31;3.53;;;3.03;;
59458;SDS011;45269;43.568;22.244;2022-10-23T15:08:56;4.82;;;3.10;;
59458;SDS011;45269;43.568;22.244;2022-10-23T15:11:22;5.32;;;4.05;;
59458;SDS011;45269;43.568;22.244;2022-10-23T15:13:48;8.20;;;7.35;;
59458;SDS011;45269;43.568;22.244;2022-10-23T15:16:13;5.05;;;4.03;;
59458;SDS011;45269;43.568;22.244;2022-10-23T15:18:38;4.03;;;3.63;;
59458;SDS011;45269;43.568;22.244;2022-10-23T15:21:04;4.63;;;4.00;;
59458;SDS011;45269;43.568;22.244;2022-10-23T15:23:31;5.50;;;4.63;;
59458;SDS011;45269;43.568;22.244;2022-10-23T15:25:59;84.00;;;66.45;;
59458;SDS011;45269;43.568;22.244;2022-10-23T15:28:25;60.80;;;47.28;;
59458;SDS011;45269;43.568;22.244;2022-10-23T15:30:51;22.17;;;18.63;;
59458;SDS011;45269;43.568;22.244;2022-10-23T15:33:16;11.32;;;10.07;;
59458;SDS011;45269;43.568;22.244;2022-10-23T15:35:42;12.98;;;11.57;;
59458;SDS011;45269;43.568;22.244;2022-10-23T15:38:07;33.10;;;28.83;;
59458;SDS011;45269;43.568;22.244;2022-10-23T15:40:32;49.85;;;41.22;;
59458;SDS011;45269;43.568;22.244;2022-10-23T15:42:58;26.95;;;19.15;;
59458;SDS011;45269;43.568;22.244;2022-10-23T15:45:23;21.65;;;15.18;;
59458;SDS011;45269;43.568;22.244;2022-10-23T15:47:48;27.63;;;20.55;;
59458;SDS011;45269;43.568;22.244;2022-10-23T15:50:15;37.17;;;30.95;;
59458;SDS011;45269;43.568;22.244;2022-10-23T15:52:40;81.65;;;63.90;;
59458;SDS011;45269;43.568;22.244;2022-10-23T15:55:06;46.03;;;33.55;;
59458;SDS011;45269;43.568;22.244;2022-10-23T15:57:35;18.98;;;13.25;;
59458;SDS011;45269;43.568;22.244;2022-10-23T16:00:00;39.33;;;28.02;;
59458;SDS011;45269;43.568;22.244;2022-10-23T16:02:26;13.50;;;9.70;;
59458;SDS011;45269;43.568;22.244;2022-10-23T16:04:51;6.45;;;5.40;;
59458;SDS011;45269;43.568;22.244;2022-10-23T16:07:17;5.95;;;5.30;;
59458;SDS011;45269;43.568;22.244;2022-10-23T16:09:42;74.47;;;58.75;;
59458;SDS011;45269;43.568;22.244;2022-10-23T16:12:07;23.55;;;19.45;;
59458;SDS011;45269;43.568;22.244;2022-10-23T16:14:33;22.65;;;17.27;;